Time;durP1;ratioP1;P1;durP2;ratioP2;P2;SDS_P1;SDS_P2;PMS_P1;PMS_P2;Temp;Humidity;BMP_temperature;BMP_pressure;BME280_temperature;BME280_humidity;BME280_pressure;Samples;Min_cycle;Max_cycle;Signal;HPM_P1;HPM_P2
2023/10/07 00:00:59;;;;;;;11.82;5.15;;;15.80;99.90;;;15.88;100.00;100973.66;4932247;29;20040;-82
2023/10/07 00:03:25;;;;;;;15.82;4.97;;;15.90;99.90;;;15.94;100.00;100969.09;4923732;29;20039;-82
2023/10/07 00:06:00;;;;;;;14.30;4.83;;;16.00;99.90;;;15.98;100.00;100978.53;4909233;29;20056;-83
2023/10/07 00:08:27;;;;;;;12.73;5.90;;;16.00;99.90;;;15.99;100.00;100974.69;4918363;29;20307;-83
2023/10/07 00:10:58;;;;;;;11.90;4.88;;;16.00;99.90;;;16.01;100.00;100977.22;4930082;29;20043;-83
2023/10/07 00:13:26;;;;;;;10.13;4.70;;;16.00;99.90;;;16.00;100.00;100981.88;4901652;29;20047;-84
2023/10/07 00:15:53;;;;;;;11.15;4.93;;;16.00;99.90;;;15.91;100.00;100966.84;4915879;29;20064;-81
2023/10/07 00:18:19;;;;;;;10.55;5.22;;;16.00;99.90;;;15.88;100.00;100978.31;4923304;29;20123;-85
2023/10/07 00:20:53;;;;;;;10.98;5.40;;;16.00;99.90;;;15.97;100.00;100974.09;4923118;29;20052;-82
2023/10/07 00:23:26;;;;;;;13.05;5.18;;;16.00;99.90;;;15.92;100.00;100972.13;4918339;29;20039;-83
2023/10/07 00:25:57;;;;;;;12.75;5.53;;;16.00;99.90;;;15.90;100.00;100968.75;4928268;29;20876;-82
2023/10/07 00:28:28;;;;;;;10.88;4.90;;;15.90;99.90;;;15.80;100.00;100974.88;4939593;29;20334;-81
2023/10/07 00:31:02;;;;;;;10.70;5.28;;;15.90;99.90;;;15.66;100.00;100967.97;4929814;29;20589;-81
2023/10/07 00:33:52;;;;;;;14.27;5.43;;;15.80;99.90;;;15.64;100.00;100973.69;4905089;29;20050;-82
2023/10/07 00:36:41;;;;;;;13.55;5.43;;;15.70;99.90;;;15.67;100.00;100967.72;4918472;29;20043;-80
2023/10/07 00:39:07;;;;;;;12.05;5.35;;;15.80;99.90;;;15.77;100.00;100956.06;4922136;29;20039;-84
2023/10/07 00:41:58;;;;;;;13.85;5.85;;;15.80;99.90;;;15.88;100.00;100973.66;4918165;29;20040;-82
2023/10/07 00:44:32;;;;;;;13.23;5.05;;;15.90;99.90;;;15.96;100.00;100970.53;4925856;29;20040;-82
2023/10/07 00:49:40;;;;;;;10.75;4.97;;;15.90;99.90;;;15.99;100.00;100971.13;4927054;29;20055;-84
2023/10/07 00:52:25;;;;;;;12.50;5.30;;;15.90;99.90;;;16.01;100.00;100972.53;4923376;29;20039;-82
2023/10/07 00:55:00;;;;;;;12.25;5.20;;;16.00;99.90;;;16.01;100.00;100972.53;4918105;29;20047;-83
2023/10/07 00:57:35;;;;;;;12.63;5.47;;;16.00;99.90;;;16.00;100.00;100964.53;4921754;29;20076;-84
2023/10/07 01:02:45;;;;;;;12.85;4.75;;;16.00;99.90;;;16.00;100.00;100976.38;4921044;29;20279;-83
2023/10/07 01:05:32;;;;;;;12.07;5.05;;;16.00;99.90;;;15.99;100.00;100973.88;4935898;29;20036;-83
2023/10/07 01:07:58;;;;;;;12.15;4.68;;;16.00;99.90;;;15.99;100.00;100958.19;4915236;29;20047;-81
2023/10/07 01:10:31;;;;;;;10.02;4.60;;;16.00;99.90;;;16.01;100.00;100968.97;4916897;29;20044;-84
2023/10/07 01:13:03;;;;;;;11.57;4.60;;;16.00;99.90;;;16.04;100.00;100968.47;4917389;29;20464;-83
2023/10/07 01:15:30;;;;;;;13.35;5.22;;;16.00;99.90;;;16.04;100.00;100968.47;4929299;29;20407;-82
2023/10/07 01:18:03;;;;;;;12.30;4.32;;;16.00;99.90;;;16.01;100.00;100966.22;4927035;29;20126;-82
2023/10/07 01:23:18;;;;;;;10.27;4.70;;;15.90;99.90;;;15.93;100.00;100956.44;4928870;29;20448;-81
2023/10/07 01:25:44;;;;;;;11.75;4.82;;;16.00;99.90;;;16.02;100.00;100956.88;4934806;29;20246;-81
2023/10/07 01:28:14;;;;;;;10.15;4.88;;;15.90;99.90;;;16.04;100.00;100960.22;4923944;29;20036;-81
2023/10/07 01:33:47;;;;;;;13.98;4.90;;;16.00;99.90;;;15.97;100.00;100941.09;4866309;29;20041;-82
2023/10/07 01:38:51;;;;;;;12.93;4.90;;;15.90;99.90;;;15.97;100.00;100957.59;4931323;29;20031;-81
2023/10/07 01:41:19;;;;;;;9.15;4.50;;;15.90;99.90;;;16.03;100.00;100959.34;4916924;29;20036;-82
2023/10/07 01:44:05;;;;;;;13.32;5.53;;;16.00;99.90;;;16.00;100.00;100956.28;4916907;29;20130;-83
2023/10/07 01:46:32;;;;;;;15.23;4.85;;;16.00;99.90;;;16.12;100.00;100943.28;4923549;29;20040;-82
2023/10/07 01:49:04;;;;;;;10.85;4.88;;;16.10;99.90;;;16.12;100.00;100950.72;4934770;29;20086;-81
2023/10/07 01:51:30;;;;;;;13.57;4.88;;;16.10;99.90;;;16.20;100.00;100959.44;4920325;29;20051;-83
2023/10/07 01:54:02;;;;;;;10.65;4.80;;;16.10;99.90;;;16.08;100.00;100955.88;4923573;29;20175;-83
2023/10/07 01:56:32;;;;;;;12.00;4.80;;;16.10;99.90;;;16.07;100.00;100948.72;4929334;29;20468;-83
2023/10/07 02:01:49;;;;;;;12.77;5.20;;;16.10;99.90;;;16.07;100.00;100955.06;4939942;29;20036;-81
2023/10/07 02:04:18;;;;;;;12.85;5.03;;;16.10;99.90;;;16.11;100.00;100952.63;4927111;29;20156;-83
2023/10/07 02:06:51;;;;;;;12.40;5.43;;;16.10;99.90;;;16.19;100.00;100956.91;4918151;29;20040;-81
2023/10/07 02:09:27;;;;;;;11.43;5.22;;;16.10;99.90;;;16.09;100.00;100958.41;4929996;29;20508;-83
2023/10/07 02:11:56;;;;;;;12.57;5.18;;;16.10;99.90;;;16.00;100.00;100953.53;4920181;29;20555;-82
2023/10/07 02:14:26;;;;;;;10.15;4.57;;;16.00;99.90;;;16.02;100.00;100951.38;4923768;29;20039;-83
2023/10/07 02:16:52;;;;;;;11.75;5.10;;;16.00;99.90;;;16.07;100.00;100960.56;4918156;29;20044;-82
2023/10/07 02:19:32;;;;;;;13.27;5.05;;;16.00;99.90;;;16.03;100.00;100966.78;4920413;29;20036;-84
2023/10/07 02:22:03;;;;;;;12.80;5.10;;;16.00;99.90;;;16.05;100.00;100959.13;4924013;29;20040;-83
2023/10/07 02:24:33;;;;;;;10.70;5.25;;;16.00;99.90;;;16.07;100.00;100970.72;4920770;29;20472;-84
2023/10/07 02:27:08;;;;;;;9.75;5.05;;;16.00;99.90;;;16.04;100.00;100972.03;4922091;29;20036;-84
2023/10/07 02:29:34;;;;;;;11.57;5.70;;;16.00;99.90;;;16.04;100.00;100954.72;4919700;29;20527;-83
2023/10/07 02:32:35;;;;;;;8.63;5.13;;;16.10;99.90;;;16.14;100.00;100959.56;4928027;29;20036;-83
2023/10/07 02:34:55;;;;;;;12.73;5.10;;;16.10;99.90;;;16.07;100.00;100951.47;4919115;29;20068;-83
2023/10/07 02:37:27;;;;;;;13.60;5.80;;;16.10;99.90;;;16.14;100.00;100954.06;4920859;29;20048;-83
2023/10/07 02:39:56;;;;;;;11.57;5.50;;;16.10;99.90;;;16.06;100.00;100953.41;4919014;29;20044;-83
2023/10/07 02:42:28;;;;;;;13.02;5.65;;;16.00;99.90;;;16.04;100.00;100955.53;4916251;29;20115;-84
2023/10/07 02:48:01;;;;;;;11.43;5.25;;;16.10;99.90;;;16.10;100.00;100960.06;4907758;29;20048;-83
2023/10/07 02:50:31;;;;;;;12.65;5.38;;;16.10;99.90;;;16.01;100.00;100957.97;4928954;29;20115;-83
2023/10/07 02:53:00;;;;;;;13.05;5.38;;;16.10;99.90;;;16.03;100.00;100940.09;4927380;29;20109;-83
2023/10/07 02:57:56;;;;;;;11.00;5.68;;;16.10;99.90;;;16.04;100.00;100929.94;4925444;29;20032;-81
2023/10/07 03:00:37;;;;;;;10.35;5.35;;;16.00;99.90;;;15.98;100.00;100919.94;4923404;29;20040;-82
2023/10/07 03:05:46;;;;;;;11.45;5.10;;;16.00;99.90;;;16.08;100.00;100918.22;4922828;29;20127;-85
2023/10/07 03:08:19;;;;;;;13.25;5.18;;;16.00;99.90;;;16.06;100.00;100911.28;4924365;29;20059;-85
2023/10/07 03:11:10;;;;;;;10.27;5.13;;;16.00;99.90;;;16.04;100.00;100917.00;4928292;29;20407;-82
2023/10/07 03:13:37;;;;;;;11.10;5.35;;;16.00;99.90;;;16.07;100.00;100921.19;4919832;29;20043;-84
2023/10/07 03:24:11;;;;;;;11.18;5.13;;;16.10;99.90;;;16.09;100.00;100910.78;4939354;29;20031;-84
2023/10/07 03:26:40;;;;;;;10.73;5.05;;;16.10;99.90;;;16.08;100.00;100918.22;4932028;29;20070;-83
2023/10/07 03:29:07;;;;;;;11.93;5.40;;;16.10;99.90;;;16.09;100.00;100911.63;4915444;29;20076;-82
2023/10/07 03:31:35;;;;;;;8.40;5.25;;;16.10;99.90;;;16.13;100.00;100909.19;4927015;29;20563;-86
2023/10/07 03:34:10;;;;;;;11.80;5.60;;;16.10;99.90;;;16.08;100.00;100903.59;4931838;29;20040;-83
2023/10/07 03:36:45;;;;;;;11.07;5.72;;;16.10;99.90;;;16.05;100.00;100906.84;4928947;29;20067;-82
2023/10/07 03:39:25;;;;;;;12.80;5.78;;;16.10;99.90;;;16.06;100.00;100912.13;4923208;29;20246;-84
2023/10/07 03:41:59;;;;;;;11.98;6.10;;;16.10;99.90;;;16.02;100.00;100913.66;4919097;29;20111;-82
2023/10/07 03:44:25;;;;;;;11.65;5.45;;;16.10;99.90;;;16.00;100.00;100909.50;4929520;29;20473;-83
2023/10/07 03:46:54;;;;;;;11.55;5.78;;;16.00;99.90;;;16.01;100.00;100931.25;4921261;29;20127;-83
2023/10/07 03:49:23;;;;;;;13.20;6.60;;;16.00;99.90;;;15.91;100.00;100911.81;4921145;29;20124;-82
2023/10/07 03:52:03;;;;;;;15.43;7.00;;;16.00;99.90;;;15.84;100.00;100905.59;4919361;29;20047;-82
2023/10/07 03:54:35;;;;;;;12.13;7.05;;;15.90;99.90;;;15.60;100.00;100891.94;4925196;29;20040;-85
2023/10/07 03:57:02;;;;;;;12.10;6.78;;;15.80;99.90;;;15.69;100.00;100909.72;4933652;29;20182;-84
2023/10/07 03:59:34;;;;;;;13.15;7.18;;;15.70;99.90;;;15.59;100.00;100899.34;4919761;29;20044;-86
2023/10/07 04:02:12;;;;;;;15.95;8.23;;;15.60;99.90;;;15.43;100.00;100895.47;4919838;29;20071;-84
2023/10/07 04:04:41;;;;;;;18.42;9.63;;;15.60;99.90;;;15.37;100.00;100891.75;4925043;29;20048;-82
2023/10/07 04:07:08;;;;;;;16.83;9.50;;;15.50;99.90;;;15.24;100.00;100881.88;4920339;29;20031;-82
2023/10/07 04:09:35;;;;;;;17.85;9.95;;;15.40;99.90;;;15.03;100.00;100858.63;4922662;29;20123;-82
2023/10/07 04:12:03;;;;;;;19.80;10.40;;;15.20;99.90;;;14.84;100.00;100835.13;4919999;29;20036;-82
2023/10/07 04:14:28;;;;;;;16.33;11.55;;;15.00;99.90;;;14.64;100.00;100790.47;4926887;29;20546;-83
2023/10/07 04:17:11;;;;;;;21.25;12.43;;;14.80;99.90;;;14.52;100.00;100774.00;4918188;29;20044;-85
2023/10/07 04:19:40;;;;;;;21.40;13.65;;;14.70;99.90;;;14.35;100.00;100716.28;4922261;29;20127;-81
2023/10/07 04:22:08;;;;;;;21.15;14.30;;;14.50;99.90;;;14.27;100.00;100686.47;4925091;29;20056;-83
2023/10/07 04:24:38;;;;;;;21.63;15.00;;;14.40;99.90;;;14.16;100.00;100644.25;4927032;29;20063;-82
2023/10/07 04:27:05;;;;;;;22.40;15.73;;;14.40;99.90;;;14.20;100.00;100615.25;4926347;29;20078;-83
2023/10/07 04:29:32;;;;;;;25.75;15.82;;;14.30;99.90;;;14.13;100.00;100587.13;4937533;29;20036;-83
2023/10/07 04:32:12;;;;;;;23.17;16.73;;;14.30;99.90;;;14.14;100.00;100563.25;4919089;29;20032;-84
2023/10/07 04:35:00;;;;;;;23.95;18.27;;;14.30;99.90;;;14.10;100.00;100544.53;4927737;29;20040;-82
2023/10/07 04:37:30;;;;;;;21.98;17.58;;;14.20;99.90;;;14.13;100.00;100529.50;4927228;29;20031;-85
2023/10/07 04:42:37;;;;;;;24.30;18.53;;;14.20;99.90;;;14.16;100.00;100519.94;4924277;29;20037;-85
2023/10/07 04:45:22;;;;;;;22.35;18.92;;;14.20;99.90;;;14.21;100.00;100511.84;4918827;29;20305;-85
2023/10/07 04:47:57;;;;;;;25.38;20.10;;;14.20;99.90;;;14.21;100.00;100531.88;4926232;29;20068;-84
2023/10/07 04:50:35;;;;;;;26.08;20.38;;;14.20;99.90;;;14.19;100.00;100522.19;4928541;29;20036;-87
2023/10/07 04:53:03;;;;;;;32.67;21.40;;;14.30;99.90;;;14.22;100.00;100500.59;4929575;29;20507;-85
2023/10/07 04:55:30;;;;;;;27.98;22.40;;;14.20;99.90;;;14.18;100.00;100521.38;4937508;29;20102;-86
2023/10/07 05:03:08;;;;;;;30.98;24.48;;;14.20;99.90;;;14.11;100.00;100479.56;4938909;29;20051;-87
2023/10/07 05:05:34;;;;;;;32.70;25.92;;;14.20;99.90;;;14.12;100.00;100474.88;4927318;29;20035;-82
2023/10/07 05:08:10;;;;;;;35.45;27.40;;;14.20;99.90;;;14.14;100.00;100459.84;4930947;29;20205;-86
2023/10/07 05:10:41;;;;;;;35.63;27.38;;;14.20;99.90;;;14.09;100.00;100437.81;4923877;29;20119;-86
2023/10/07 05:13:09;;;;;;;36.15;26.83;;;14.30;99.90;;;14.17;100.00;100445.66;4919147;29;20044;-85
2023/10/07 05:15:41;;;;;;;37.30;27.50;;;14.20;99.90;;;14.17;100.00;100456.63;4938224;29;20036;-82
2023/10/07 05:18:12;;;;;;;32.90;26.33;;;14.30;99.90;;;14.22;100.00;100451.22;4918650;29;20037;-82
2023/10/07 05:20:46;;;;;;;30.15;24.88;;;14.30;99.90;;;14.22;100.00;100459.44;4930651;29;20056;-82
2023/10/07 05:23:17;;;;;;;35.88;25.30;;;14.30;99.90;;;14.27;100.00;100457.88;4920746;29;20039;-84
2023/10/07 05:25:51;;;;;;;32.55;25.05;;;14.30;99.90;;;14.29;100.00;100466.69;4930298;29;20150;-82
2023/10/07 05:28:21;;;;;;;34.08;24.42;;;14.30;99.90;;;14.33;100.00;100473.38;4922255;29;20382;-85
2023/10/07 05:30:50;;;;;;;32.40;24.42;;;14.40;99.90;;;14.35;100.00;100469.28;4925957;29;20043;-84
2023/10/07 05:33:28;;;;;;;32.20;24.30;;;14.40;99.90;;;14.39;100.00;100481.44;4925949;29;20336;-86
2023/10/07 05:36:08;;;;;;;33.65;22.60;;;14.40;99.90;;;14.45;100.00;100478.78;4918629;29;20046;-89
2023/10/07 05:38:36;;;;;;;31.08;23.15;;;14.50;99.90;;;14.48;100.00;100494.78;4911114;29;20440;-89
2023/10/07 05:41:02;;;;;;;29.85;22.40;;;14.50;99.90;;;14.44;100.00;100491.69;4922234;29;20039;-84
2023/10/07 05:43:29;;;;;;;31.35;22.15;;;14.50;99.90;;;14.56;100.00;100513.59;4917185;29;20055;-85
2023/10/07 05:45:55;;;;;;;31.38;24.67;;;14.50;99.90;;;14.50;100.00;100514.56;4928595;29;20518;-84
2023/10/07 05:48:21;;;;;;;28.63;22.90;;;14.60;99.90;;;14.57;100.00;100531.72;4915389;29;20063;-82
2023/10/07 05:50:48;;;;;;;33.50;21.42;;;14.60;99.90;;;14.70;100.00;100562.69;4921057;29;20158;-87
2023/10/07 05:53:15;;;;;;;28.67;20.08;;;14.70;99.90;;;14.72;100.00;100575.13;4918215;29;20055;-85
2023/10/07 05:55:42;;;;;;;30.80;21.52;;;14.70;99.90;;;14.81;100.00;100609.34;4918205;29;20040;-85
2023/10/07 05:58:08;;;;;;;28.17;20.60;;;14.90;99.90;;;14.89;100.00;100638.31;4919680;29;20404;-82
2023/10/07 06:00:36;;;;;;;25.55;19.70;;;15.00;99.90;;;15.01;100.00;100663.00;4916768;29;20036;-84
2023/10/07 06:03:06;;;;;;;26.50;19.23;;;15.00;99.90;;;15.08;100.00;100680.13;4921257;29;20036;-84
2023/10/07 06:05:39;;;;;;;24.80;18.38;;;15.10;99.90;;;15.11;100.00;100695.31;4921794;29;20162;-84
2023/10/07 06:08:06;;;;;;;25.75;18.08;;;15.20;99.90;;;15.19;100.00;100710.56;4899401;29;20131;-82
2023/10/07 06:10:34;;;;;;;25.08;18.27;;;15.30;99.90;;;15.26;100.00;100722.25;4923852;29;20044;-88
2023/10/07 06:13:08;;;;;;;23.65;17.10;;;15.40;99.90;;;15.36;100.00;100735.34;4927498;29;20043;-89
2023/10/07 06:15:37;;;;;;;27.65;18.80;;;15.40;99.90;;;15.33;100.00;100752.31;4925914;29;20039;-88
2023/10/07 06:18:04;;;;;;;21.98;18.30;;;15.50;99.90;;;15.34;100.00;100754.81;4920067;29;20107;-83
2023/10/07 06:20:37;;;;;;;24.60;18.27;;;15.50;99.90;;;15.42;100.00;100767.34;4933244;29;20035;-87
2023/10/07 06:23:15;;;;;;;28.17;19.60;;;15.60;99.90;;;15.35;100.00;100761.16;4921351;29;20050;-86
2023/10/07 06:25:50;;;;;;;27.60;17.98;;;15.50;99.90;;;15.47;100.00;100769.34;4925510;29;20035;-88
2023/10/07 06:28:29;;;;;;;24.05;17.50;;;15.60;99.90;;;15.50;100.00;100782.59;4926475;29;20107;-89
2023/10/07 06:31:54;;;;;;;23.88;18.92;;;15.50;99.90;;;15.45;100.00;100774.25;4929071;29;20426;-88
2023/10/07 06:34:12;;;;;;;24.38;17.90;;;15.50;99.90;;;15.36;100.00;100777.38;4920505;29;20051;-88
2023/10/07 06:36:40;;;;;;;28.95;19.23;;;15.50;99.90;;;15.46;100.00;100779.50;4928079;29;20050;-84
2023/10/07 06:39:07;;;;;;;27.10;19.38;;;15.50;99.90;;;15.39;100.00;100773.31;4922127;29;20040;-84
2023/10/07 06:41:35;;;;;;;28.60;19.60;;;15.50;99.90;;;15.44;100.00;100776.16;4917245;29;20044;-87
2023/10/07 06:44:04;;;;;;;24.80;19.17;;;15.50;99.90;;;15.48;100.00;100777.34;4926047;29;20115;-86
2023/10/07 06:46:40;;;;;;;29.33;18.85;;;15.50;99.90;;;15.50;100.00;100788.09;4924862;29;20043;-93
2023/10/07 06:49:19;;;;;;;27.85;19.67;;;15.50;99.90;;;15.48;100.00;100788.34;4932002;29;20063;-83
2023/10/07 06:51:53;;;;;;;28.02;20.63;;;15.50;99.90;;;15.45;100.00;100786.09;4932023;29;20054;-89
2023/10/07 06:54:26;;;;;;;26.88;20.08;;;15.50;99.90;;;15.30;100.00;100769.31;4933918;29;20064;-88
2023/10/07 06:56:54;;;;;;;27.73;20.55;;;15.50;99.90;;;15.38;100.00;100782.66;4950609;29;20036;-84
2023/10/07 06:59:27;;;;;;;25.38;20.92;;;15.50;99.90;;;15.43;100.00;100784.69;4947073;29;20095;-89
2023/10/07 07:01:55;;;;;;;28.73;21.13;;;15.50;99.90;;;15.46;100.00;100795.19;4945097;29;20044;-82
2023/10/07 07:04:25;;;;;;;29.75;20.02;;;15.60;99.90;;;15.54;100.00;100805.75;4937817;29;20094;-86
2023/10/07 07:07:10;;;;;;;29.50;20.23;;;15.60;99.90;;;15.47;100.00;100794.09;4920420;29;20036;-81
2023/10/07 07:12:21;;;;;;;29.10;21.90;;;15.60;99.90;;;15.48;100.00;100784.75;4923170;29;20412;-81
2023/10/07 07:14:53;;;;;;;38.80;22.45;;;15.60;99.90;;;15.48;100.00;100790.25;4914799;29;20054;-81
2023/10/07 07:17:29;;;;;;;30.70;22.60;;;15.60;99.90;;;15.45;100.00;100799.81;4922446;29;20041;-81
2023/10/07 07:22:44;;;;;;;29.90;21.27;;;15.50;99.90;;;15.43;100.00;100791.00;4920715;29;20076;-83
2023/10/07 07:27:52;;;;;;;28.77;21.40;;;15.60;99.90;;;15.56;100.00;100806.34;4930026;29;20087;-85
2023/10/07 07:30:20;;;;;;;28.52;22.13;;;15.70;99.90;;;15.67;100.00;100818.38;4930632;29;20090;-82
2023/10/07 07:32:55;;;;;;;30.75;21.50;;;15.70;99.90;;;15.72;100.00;100831.41;4929002;29;20047;-85
2023/10/07 07:35:22;;;;;;;30.38;22.05;;;15.80;99.90;;;15.71;100.00;100818.72;4927333;29;20032;-84
2023/10/07 07:37:52;;;;;;;28.40;21.77;;;15.80;99.90;;;15.67;100.00;100835.72;4932603;29;20502;-86
2023/10/07 07:43:07;;;;;;;30.20;22.98;;;15.80;99.90;;;15.71;100.00;100807.72;4928738;29;20040;-87
2023/10/07 07:45:35;;;;;;;30.45;21.63;;;15.80;99.90;;;15.68;100.00;100809.03;4925868;29;20127;-87
2023/10/07 07:48:06;;;;;;;30.77;22.42;;;15.90;99.90;;;15.81;100.00;100830.75;4942719;29;20032;-88
2023/10/07 07:50:35;;;;;;;33.72;21.30;;;15.90;99.90;;;15.90;100.00;100822.94;4924100;29;20480;-85
2023/10/07 07:53:07;;;;;;;32.40;21.83;;;16.00;99.90;;;16.06;100.00;100824.06;4926397;29;20043;-87
2023/10/07 07:55:43;;;;;;;30.08;19.95;;;16.00;99.90;;;16.11;100.00;100828.78;4928367;29;20036;-85
2023/10/07 07:58:10;;;;;;;30.60;21.30;;;16.10;99.90;;;16.08;100.00;100832.03;4928096;29;20480;-84
2023/10/07 08:00:44;;;;;;;33.07;22.63;;;16.10;99.90;;;16.15;100.00;100832.72;4924953;29;20383;-86
2023/10/07 08:03:22;;;;;;;29.25;21.08;;;16.20;99.90;;;16.17;100.00;100830.53;4933479;29;20287;-85
2023/10/07 08:05:50;;;;;;;29.80;22.55;;;16.20;99.90;;;16.13;100.00;100836.81;4928458;29;20123;-88
2023/10/07 08:08:24;;;;;;;28.70;21.80;;;16.20;99.90;;;16.17;100.00;100849.00;4929880;29;20092;-84
2023/10/07 08:10:54;;;;;;;36.40;21.73;;;16.30;99.90;;;16.29;100.00;100852.47;4926129;29;20044;-83
2023/10/07 08:13:29;;;;;;;31.30;21.50;;;16.30;99.90;;;16.17;100.00;100862.75;4930359;29;20092;-84
2023/10/07 08:15:55;;;;;;;29.35;21.60;;;16.30;99.90;;;16.19;100.00;100853.16;4911092;29;20063;-85
2023/10/07 08:18:28;;;;;;;31.85;22.08;;;16.20;99.90;;;16.15;100.00;100843.72;4944251;29;20074;-82
2023/10/07 08:21:07;;;;;;;29.83;21.85;;;16.30;99.90;;;16.22;100.00;100849.91;4935222;29;20404;-84
2023/10/07 08:23:37;;;;;;;;;;;16.30;99.90;;;16.29;100.00;100857.16;4941113;29;20056;-84
2023/10/07 08:26:10;;;;;;;30.85;21.60;;;16.30;99.90;;;16.28;100.00;100856.31;4945848;29;19922;-85
2023/10/07 08:28:43;;;;;;;29.63;21.67;;;16.40;99.90;;;16.25;100.00;100852.16;4910096;29;20051;-86
2023/10/07 08:31:22;;;;;;;29.40;20.73;;;16.30;99.90;;;16.27;100.00;100853.84;4919544;29;20356;-85
2023/10/07 08:34:09;;;;;;;29.27;20.25;;;16.30;99.90;;;16.22;100.00;100849.06;4919530;29;20036;-87
2023/10/07 08:36:47;;;;;;;29.77;21.05;;;16.30;99.90;;;16.23;100.00;100847.97;4928234;29;20044;-86
2023/10/07 08:39:18;;;;;;;32.57;21.13;;;16.30;99.90;;;16.17;100.00;100843.47;4925717;29;20036;-85
2023/10/07 08:41:50;;;;;;;30.45;20.55;;;16.30;99.90;;;16.23;100.00;100840.56;4932656;29;20040;-89
2023/10/07 08:44:17;;;;;;;30.40;21.05;;;16.30;99.90;;;16.30;100.00;100848.63;4928384;29;20039;-83
2023/10/07 08:46:54;;;;;;;28.45;21.00;;;16.30;99.90;;;16.25;100.00;100837.56;4925810;29;20065;-83
2023/10/07 08:49:25;;;;;;;27.52;20.27;;;16.30;99.90;;;16.31;100.00;100832.97;4919387;29;20028;-85
2023/10/07 08:51:52;;;;;;;28.55;21.25;;;16.40;99.90;;;16.35;100.00;100823.13;4919408;29;20429;-88
2023/10/07 08:54:25;;;;;;;30.67;22.27;;;16.40;99.90;;;16.31;100.00;100819.22;4921788;29;20412;-87
2023/10/07 08:56:57;;;;;;;30.10;21.10;;;16.40;99.90;;;16.42;100.00;100825.72;4929104;29;20055;-87
2023/10/07 08:59:33;;;;;;;28.02;20.83;;;16.50;99.90;;;16.53;100.00;100814.59;4932005;29;20032;-86
2023/10/07 09:02:00;;;;;;;29.60;21.58;;;16.50;99.90;;;16.41;100.00;100824.03;4925854;29;20073;-86
2023/10/07 09:04:33;;;;;;;27.60;21.17;;;16.50;99.90;;;16.53;100.00;100831.13;4919944;29;20048;-89
2023/10/07 09:07:08;;;;;;;29.30;21.08;;;16.50;99.90;;;16.71;100.00;100825.56;4927879;29;20035;-89
2023/10/07 09:09:38;;;;;;;28.85;21.20;;;16.70;99.90;;;16.75;100.00;100819.31;4921496;29;20497;-87
2023/10/07 09:12:30;;;;;;;30.83;21.90;;;16.80;99.90;;;17.06;100.00;100835.44;4919143;29;20032;-86
2023/10/07 09:14:59;;;;;;;30.20;22.17;;;17.00;99.90;;;17.14;100.00;100847.94;4920221;29;20433;-85
2023/10/07 09:17:29;;;;;;;30.13;21.98;;;17.10;99.90;;;17.23;100.00;100844.50;4930171;29;20047;-84
2023/10/07 09:20:01;;;;;;;30.02;21.35;;;17.20;99.90;;;17.30;100.00;100844.31;4929474;29;20043;-88
2023/10/07 09:22:35;;;;;;;30.02;22.27;;;17.30;99.90;;;17.25;100.00;100853.34;4927649;29;20047;-87
2023/10/07 09:25:17;;;;;;;34.03;22.25;;;17.30;99.90;;;17.24;100.00;100851.66;4919897;29;20036;-83
2023/10/07 09:27:56;;;;;;;32.38;21.52;;;17.30;99.90;;;17.26;100.00;100843.16;4930103;29;20174;-85
2023/10/07 09:33:13;;;;;;;35.72;22.17;;;17.30;99.90;;;17.33;100.00;100848.44;4923520;29;20114;-86
2023/10/07 09:38:41;;;;;;;31.38;22.95;;;17.30;99.90;;;17.34;100.00;100850.97;4929378;29;20039;-90
2023/10/07 09:41:23;;;;;;;32.95;22.80;;;17.40;99.90;;;17.33;100.00;100846.53;4923665;29;20040;-87
2023/10/07 09:43:57;;;;;;;33.42;22.58;;;17.40;99.90;;;17.42;100.00;100843.31;4933025;29;20044;-85
2023/10/07 09:46:34;;;;;;;33.55;22.27;;;17.40;99.90;;;17.46;100.00;100859.09;4937694;29;20079;-84
2023/10/07 09:49:00;;;;;;;31.73;23.02;;;17.40;99.90;;;17.40;100.00;100849.09;4918751;29;20440;-83
2023/10/07 09:51:34;;;;;;;35.35;23.88;;;17.40;99.90;;;17.29;100.00;100839.88;4918444;29;20043;-84
2023/10/07 09:54:22;;;;;;;35.92;23.25;;;17.40;99.90;;;17.35;100.00;100851.78;4924242;29;20068;-86
2023/10/07 09:57:29;;;;;;;33.92;22.25;;;17.40;99.90;;;17.19;100.00;100843.34;4926450;29;20036;-84
2023/10/07 10:03:28;;;;;;;34.15;22.02;;;17.30;99.90;;;17.37;100.00;100839.41;4919135;29;20082;-89
2023/10/07 10:06:39;;;;;;;36.60;23.60;;;17.30;99.90;;;17.59;100.00;100851.50;4925755;29;20069;-86
2023/10/07 10:09:14;;;;;;;28.92;20.70;;;17.50;99.90;;;17.89;100.00;100862.03;4922641;29;20044;-82
2023/10/07 10:11:55;;;;;;;30.98;20.30;;;17.70;99.90;;;18.04;100.00;100879.88;4944276;29;20070;-84
2023/10/07 10:14:50;;;;;;;30.70;20.77;;;18.00;99.90;;;18.34;100.00;100884.00;4919185;29;20380;-86
2023/10/07 10:17:22;;;;;;;28.13;19.52;;;18.20;99.90;;;18.30;100.00;100894.72;4933295;29;20042;-86
2023/10/07 10:19:47;;;;;;;29.42;20.95;;;18.30;99.90;;;18.19;100.00;100887.47;4932852;29;20036;-86
2023/10/07 10:22:24;;;;;;;27.58;18.75;;;18.30;99.90;;;18.21;100.00;100902.66;4941751;29;20040;-85
2023/10/07 10:24:57;;;;;;;28.17;19.25;;;18.30;99.90;;;18.03;100.00;100880.94;4936241;29;20051;-85
2023/10/07 10:27:25;;;;;;;29.52;19.65;;;18.10;99.90;;;17.96;100.00;100878.38;4922480;29;20055;-87
2023/10/07 10:30:06;;;;;;;26.55;19.10;;;18.10;99.90;;;18.22;100.00;100892.47;4923043;29;20052;-87
2023/10/07 10:32:37;;;;;;;27.48;18.70;;;18.20;99.90;;;18.37;100.00;100881.53;4919687;29;20063;-87
2023/10/07 10:35:06;;;;;;;23.38;17.08;;;18.30;99.90;;;18.48;100.00;100904.53;4918213;29;20975;-87
2023/10/07 10:37:33;;;;;;;22.60;16.42;;;;;;;18.65;100.00;100917.38;4920203;29;20044;-87
2023/10/07 10:40:20;;;;;;;22.70;16.52;;;;;;;18.65;100.00;100926.50;4931687;29;20392;-86
2023/10/07 10:42:49;;;;;;;24.98;16.90;;;18.40;99.90;;;18.48;100.00;100932.16;4939311;29;20067;-88
2023/10/07 10:45:26;;;;;;;23.75;17.45;;;18.60;99.90;;;18.29;100.00;100930.88;4931806;29;20090;-89
2023/10/07 10:47:54;;;;;;;24.17;16.50;;;18.50;99.90;;;18.50;100.00;100927.22;4930487;29;20079;-85
2023/10/07 10:50:23;;;;;;;;;;;18.50;99.90;;;18.37;100.00;100927.66;4927133;29;20036;-88
2023/10/07 10:52:58;;;;;;;22.83;16.45;;;18.50;99.90;;;18.31;100.00;100912.16;4920460;29;19923;-87
2023/10/07 10:55:24;;;;;;;23.05;16.95;;;18.50;99.90;;;18.46;100.00;100928.03;4924797;29;20050;-82
2023/10/07 10:57:53;;;;;;;20.35;16.48;;;18.60;99.90;;;18.75;100.00;100922.16;4923085;29;20047;-86
2023/10/07 11:00:21;;;;;;;23.63;16.60;;;18.70;99.90;;;18.73;100.00;100924.34;4926529;29;20122;-88
2023/10/07 11:02:51;;;;;;;25.30;17.05;;;19.00;99.90;;;18.62;100.00;100929.78;4917983;29;20040;-87
2023/10/07 11:05:18;;;;;;;21.23;15.98;;;18.90;99.90;;;18.52;100.00;100916.72;4929074;29;20091;-83
2023/10/07 11:07:50;;;;;;;22.02;15.15;;;18.90;99.90;;;18.61;100.00;100913.50;4922664;29;20506;-90
2023/10/07 11:10:22;;;;;;;22.20;15.82;;;18.80;99.90;;;18.65;100.00;100920.16;4923786;29;20040;-89
2023/10/07 11:12:52;;;;;;;24.17;16.00;;;18.80;99.90;;;18.61;100.00;100907.97;4907926;29;20042;-88
2023/10/07 11:15:25;;;;;;;21.77;15.32;;;18.80;99.90;;;18.81;100.00;100916.38;4925769;29;20035;-90
2023/10/07 11:18:12;;;;;;;24.00;15.45;;;18.90;99.90;;;18.72;100.00;100920.75;4908565;29;20115;-82
2023/10/07 11:20:40;;;;;;;20.23;14.82;;;18.90;99.90;;;18.80;100.00;100923.00;4921538;29;20396;-85